createdAt,value
2022-09-06T00:00:02.349Z,9.279968
2022-09-06T00:01:02.327Z,9.279883
2022-09-06T00:02:02.309Z,9.279801
2022-09-06T00:03:02.312Z,9.279871
2022-09-06T00:04:02.970Z,9.279864
2022-09-06T00:05:02.258Z,9.279906
2022-09-06T00:06:02.228Z,9.280042
2022-09-06T00:07:02.219Z,9.279969
2022-09-06T00:08:02.193Z,9.280005
2022-09-06T00:09:02.168Z,9.280005
2022-09-06T00:10:02.150Z,9.279943
2022-09-06T00:11:02.126Z,9.279996
2022-09-06T00:12:02.105Z,9.279904
2022-09-06T00:13:02.088Z,9.279875
2022-09-06T00:14:02.066Z,9.279911
2022-09-06T00:15:02.046Z,9.279950
2022-09-06T00:16:02.962Z,9.279950
2022-09-06T00:17:02.010Z,9.279876
2022-09-06T00:18:01.980Z,9.279968
2022-09-06T00:19:01.958Z,9.280053
2022-09-06T00:20:01.938Z,9.279926
2022-09-06T00:21:01.918Z,9.279910
2022-09-06T00:22:01.906Z,9.279902
2022-09-06T00:23:01.884Z,9.279921
2022-09-06T00:24:02.404Z,9.279788
2022-09-06T00:25:02.402Z,9.279851
2022-09-06T00:26:01.817Z,9.279895
2022-09-06T00:27:01.797Z,9.279820
2022-09-06T00:28:01.774Z,9.279903
2022-09-06T00:29:01.761Z,9.279821
2022-09-06T00:30:01.734Z,9.279821
2022-09-06T00:31:01.753Z,9.279876
2022-09-06T00:32:01.699Z,9.279873
2022-09-06T00:33:01.675Z,9.279840
2022-09-06T00:34:01.666Z,9.279849
2022-09-06T00:35:01.633Z,9.279989
2022-09-06T00:36:01.612Z,9.279894
2022-09-06T00:37:01.592Z,9.279875
2022-09-06T00:38:01.578Z,9.279864
2022-09-06T00:39:01.552Z,9.279934
2022-09-06T00:40:01.633Z,9.279892
2022-09-06T00:41:01.512Z,9.279917
2022-09-06T00:42:01.495Z,9.279947
2022-09-06T00:43:01.468Z,9.279914
2022-09-06T00:44:01.444Z,9.279939
2022-09-06T00:45:01.427Z,9.279822
2022-09-06T00:46:01.474Z,9.279804
2022-09-06T00:47:01.386Z,9.279781
2022-09-06T00:48:01.364Z,9.279842
2022-09-06T00:49:01.350Z,9.279851
2022-09-06T00:50:01.335Z,9.279797
2022-09-06T00:51:01.310Z,9.280000
2022-09-06T00:52:01.287Z,9.279941
2022-09-06T00:53:01.265Z,9.279974
2022-09-06T00:54:01.249Z,9.279978
2022-09-06T00:55:01.227Z,9.280077
2022-09-06T00:56:01.209Z,9.279936
2022-09-06T00:57:01.193Z,9.280044
2022-09-06T00:58:01.165Z,9.279868
2022-09-06T00:59:01.143Z,9.279867
2022-09-06T01:00:01.123Z,9.279869
2022-09-06T01:01:01.108Z,9.279724
2022-09-06T01:02:01.225Z,9.279734
2022-09-06T01:03:01.063Z,9.279682
2022-09-06T01:04:01.036Z,9.279662
2022-09-06T01:05:01.017Z,9.279771
2022-09-06T01:06:01.009Z,9.279867
2022-09-06T01:07:00.978Z,9.279820
2022-09-06T01:08:00.959Z,9.279827
2022-09-06T01:09:00.934Z,9.279698
2022-09-06T01:10:00.927Z,9.279844
2022-09-06T01:11:00.900Z,9.279978
2022-09-06T01:12:00.878Z,9.280101
2022-09-06T01:13:00.859Z,9.280081
2022-09-06T01:14:00.834Z,9.280087
2022-09-06T01:15:00.812Z,9.279973
2022-09-06T01:16:00.873Z,9.279962
2022-09-06T01:17:00.777Z,9.279939
2022-09-06T01:18:00.753Z,9.280040
2022-09-06T01:19:00.739Z,9.280012
2022-09-06T01:20:00.717Z,9.279984
2022-09-06T01:21:00.693Z,9.279986
2022-09-06T01:22:00.676Z,9.279865
2022-09-06T01:23:00.650Z,9.279866
2022-09-06T01:24:00.634Z,9.279896
2022-09-06T01:25:00.616Z,9.279881
2022-09-06T01:26:00.599Z,9.279836
2022-09-06T01:27:00.574Z,9.279786
2022-09-06T01:28:00.556Z,9.279733
2022-09-06T01:29:00.531Z,9.279541
2022-09-06T01:30:00.511Z,9.279819
2022-09-06T01:31:00.535Z,9.279859
2022-09-06T01:32:00.472Z,9.279825
2022-09-06T01:33:00.449Z,9.279833
2022-09-06T01:34:00.430Z,9.279775
2022-09-06T01:35:00.399Z,9.279843
2022-09-06T01:36:01.391Z,9.279760
2022-09-06T01:37:09.815Z,9.279812
2022-09-06T01:38:02.347Z,9.279732
2022-09-06T01:39:00.335Z,9.279924
2022-09-06T01:40:00.378Z,9.279969
2022-09-06T01:41:00.281Z,9.279878
2022-09-06T01:42:00.261Z,9.279887
2022-09-06T01:43:00.238Z,9.279896
2022-09-06T01:44:00.223Z,9.279911
2022-09-06T01:45:00.204Z,9.279893
2022-09-06T01:46:00.206Z,9.279857
2022-09-06T01:47:00.156Z,9.279871
2022-09-06T01:48:00.146Z,9.279890
2022-09-06T01:49:00.116Z,9.279924
2022-09-06T01:50:00.126Z,9.279873
2022-09-06T01:51:00.086Z,9.279869
2022-09-06T01:52:00.080Z,9.279890
2022-09-06T01:53:00.032Z,9.279917
2022-09-06T01:54:00.013Z,9.279904
2022-09-06T01:54:59.992Z,9.279816
2022-09-06T01:55:59.992Z,9.279905
2022-09-06T01:56:59.955Z,9.279894
2022-09-06T01:57:59.934Z,9.279899
2022-09-06T01:58:59.918Z,9.279948
2022-09-06T01:59:59.900Z,9.279901
2022-09-06T02:00:59.871Z,9.279963
2022-09-06T02:01:59.853Z,9.279943
2022-09-06T02:02:59.827Z,9.279886
2022-09-06T02:03:59.835Z,9.279887
2022-09-06T02:04:59.792Z,9.279909
2022-09-06T02:05:59.770Z,9.279879
2022-09-06T02:06:59.750Z,9.279884
2022-09-06T02:07:59.742Z,9.279908
2022-09-06T02:08:59.719Z,9.279964
2022-09-06T02:09:59.693Z,9.279952
2022-09-06T02:10:59.668Z,9.279948
2022-09-06T02:11:59.648Z,9.279905
2022-09-06T02:12:59.647Z,9.279886
2022-09-06T02:13:59.608Z,9.279812
2022-09-06T02:14:59.582Z,9.279869
2022-09-06T02:15:59.594Z,9.279969
2022-09-06T02:16:59.605Z,9.279933
2022-09-06T02:18:00.524Z,9.279898
2022-09-06T02:18:59.506Z,9.279942
2022-09-06T02:19:59.501Z,9.279961
2022-09-06T02:20:59.461Z,9.279955
2022-09-06T02:21:59.437Z,9.279955
2022-09-06T02:23:00.270Z,9.280006
2022-09-06T02:23:59.397Z,9.279958
2022-09-06T02:24:59.373Z,9.279984
2022-09-06T02:25:59.355Z,9.280020
2022-09-06T02:26:59.333Z,9.280024
2022-09-06T02:28:00.267Z,9.279931
2022-09-06T02:28:59.281Z,9.279967
2022-09-06T02:29:59.273Z,9.279982
2022-09-06T02:30:59.295Z,9.279986
2022-09-06T02:31:59.241Z,9.280004
2022-09-06T02:32:59.217Z,9.279961
2022-09-06T02:33:59.196Z,9.279981
2022-09-06T02:34:59.175Z,9.279964
2022-09-06T02:35:59.157Z,9.279915
2022-09-06T02:36:59.137Z,9.279927
2022-09-06T02:37:59.132Z,9.279936
2022-09-06T02:38:59.090Z,9.279959
2022-09-06T02:39:59.129Z,9.279963
2022-09-06T02:40:59.048Z,9.279855
2022-09-06T02:41:59.766Z,9.279924
2022-09-06T02:42:59.008Z,9.279931
2022-09-06T02:43:58.989Z,9.279915
2022-09-06T02:44:58.971Z,9.279935
2022-09-06T02:45:58.969Z,9.279899
2022-09-06T02:46:58.925Z,9.279896
2022-09-06T02:47:58.904Z,9.279884
2022-09-06T02:48:58.886Z,9.279904
2022-09-06T02:49:58.867Z,9.279934
2022-09-06T02:50:58.841Z,9.279951
2022-09-06T02:51:58.819Z,9.279948
2022-09-06T02:52:58.798Z,9.279983
2022-09-06T02:53:58.778Z,9.279949
2022-09-06T02:54:58.758Z,9.279931
2022-09-06T02:55:58.733Z,9.279908
2022-09-06T02:56:58.714Z,9.279904
2022-09-06T02:57:58.692Z,9.279990
2022-09-06T02:58:58.671Z,9.279931
2022-09-06T02:59:58.653Z,9.279937
2022-09-06T03:00:58.741Z,9.279956
2022-09-06T03:01:59.288Z,9.279936
2022-09-06T03:02:58.610Z,9.279848
2022-09-06T03:03:58.568Z,9.279898
2022-09-06T03:04:58.556Z,9.279850
2022-09-06T03:05:58.529Z,9.279930
2022-09-06T03:06:58.511Z,9.279927
2022-09-06T03:07:58.487Z,9.279920
2022-09-06T03:08:58.471Z,9.279879
2022-09-06T03:09:59.451Z,9.279846
2022-09-06T03:10:58.432Z,9.279828
2022-09-06T03:11:58.407Z,9.279785
2022-09-06T03:12:58.388Z,9.279849
2022-09-06T03:13:58.366Z,9.279804
2022-09-06T03:14:58.343Z,9.279887
2022-09-06T03:15:58.322Z,9.279902
2022-09-06T03:16:58.367Z,9.279970
2022-09-06T03:17:58.282Z,9.280023
2022-09-06T03:18:58.258Z,9.279993
2022-09-06T03:19:58.238Z,9.279989
2022-09-06T03:20:58.217Z,9.279927
2022-09-06T03:21:58.197Z,9.279860
2022-09-06T03:22:58.181Z,9.279801
2022-09-06T03:23:58.157Z,9.279931
2022-09-06T03:24:58.132Z,9.279845
2022-09-06T03:25:58.114Z,9.279837
2022-09-06T03:26:58.093Z,9.279823
2022-09-06T03:27:58.076Z,9.279842
2022-09-06T03:28:58.057Z,9.279891
2022-09-06T03:29:58.033Z,9.279965
2022-09-06T03:30:58.074Z,9.279998
2022-09-06T03:31:57.995Z,9.279906
2022-09-06T03:33:00.824Z,9.279884
2022-09-06T03:33:58.953Z,9.279875
2022-09-06T03:34:58.761Z,9.279899
2022-09-06T03:35:57.933Z,9.279911
2022-09-06T03:36:58.893Z,9.279921
2022-09-06T03:37:57.874Z,9.279904
2022-09-06T03:38:57.851Z,9.279915
2022-09-06T03:39:57.842Z,9.279967
2022-09-06T03:40:57.807Z,9.280019
2022-09-06T03:41:57.788Z,9.279979
2022-09-06T03:42:57.768Z,9.279895
2022-09-06T03:43:57.744Z,9.280022
2022-09-06T03:44:58.259Z,9.279984
2022-09-06T03:45:57.788Z,9.279966
2022-09-06T03:46:58.692Z,9.279954
2022-09-06T03:47:57.661Z,9.279851
2022-09-06T03:48:57.641Z,9.279824
2022-09-06T03:49:57.618Z,9.279882
2022-09-06T03:50:57.598Z,9.279948
2022-09-06T03:51:58.256Z,9.279906
2022-09-06T03:52:57.554Z,9.279922
2022-09-06T03:53:57.564Z,9.279928
2022-09-06T03:54:57.507Z,9.279926
2022-09-06T03:55:57.483Z,9.279872
2022-09-06T03:56:57.465Z,9.279925
2022-09-06T03:57:57.446Z,9.279974
2022-09-06T03:58:58.428Z,9.279951
2022-09-06T03:59:57.401Z,9.279931
2022-09-06T04:00:57.424Z,9.279931
2022-09-06T04:01:57.385Z,9.279860
2022-09-06T04:03:01.533Z,9.279907
2022-09-06T04:03:58.315Z,9.280055
2022-09-06T04:04:57.299Z,9.279897
2022-09-06T04:05:57.272Z,9.279731
2022-09-06T04:06:57.252Z,9.279698
2022-09-06T04:07:58.236Z,9.279729
2022-09-06T04:08:57.220Z,9.279793
2022-09-06T04:09:57.186Z,9.279939
2022-09-06T04:10:57.167Z,9.279997
2022-09-06T04:11:57.146Z,9.280047
2022-09-06T04:12:57.123Z,9.280066
2022-09-06T04:13:57.102Z,9.280089
2022-09-06T04:14:57.081Z,9.280132
2022-09-06T04:15:57.058Z,9.280046
2022-09-06T04:16:57.086Z,9.280015
2022-09-06T04:17:57.013Z,9.279984
2022-09-06T04:18:57.001Z,9.280071
2022-09-06T04:19:56.971Z,9.280112
2022-09-06T04:20:57.761Z,9.280024
2022-09-06T04:21:56.934Z,9.279930
2022-09-06T04:22:56.911Z,9.279945
2022-09-06T04:23:56.892Z,9.279842
2022-09-06T04:24:56.874Z,9.279922
2022-09-06T04:25:56.845Z,9.279962
2022-09-06T04:26:56.826Z,9.279922
2022-09-06T04:27:56.799Z,9.279930
2022-09-06T04:28:57.789Z,9.279972
2022-09-06T04:29:56.758Z,9.279908
2022-09-06T04:30:59.775Z,9.279988
2022-09-06T04:31:56.780Z,9.280065
2022-09-06T04:32:56.696Z,9.280011
2022-09-06T04:33:56.674Z,9.279945
2022-09-06T04:34:56.658Z,9.279887
2022-09-06T04:35:56.635Z,9.279867
2022-09-06T04:36:56.618Z,9.279786
2022-09-06T04:37:56.590Z,9.279920
2022-09-06T04:38:56.570Z,9.279959
2022-09-06T04:39:56.594Z,9.279956
2022-09-06T04:40:56.529Z,9.279860
2022-09-06T04:41:56.509Z,9.279671
2022-09-06T04:42:56.496Z,9.279906
2022-09-06T04:43:56.468Z,9.280013
2022-09-06T04:44:56.445Z,9.279963
2022-09-06T04:45:56.465Z,9.280133
2022-09-06T04:46:56.405Z,9.280023
2022-09-06T04:47:56.389Z,9.280097
2022-09-06T04:48:56.366Z,9.280106
2022-09-06T04:49:56.342Z,9.279779
2022-09-06T04:50:56.333Z,9.279634
2022-09-06T04:51:56.307Z,9.279828
2022-09-06T04:52:57.257Z,9.280034
2022-09-06T04:53:56.260Z,9.279906
2022-09-06T04:54:56.237Z,9.279959
2022-09-06T04:55:56.216Z,9.279954
2022-09-06T04:56:56.199Z,9.280042
2022-09-06T04:57:56.173Z,9.280006
2022-09-06T04:58:56.155Z,9.279974
2022-09-06T04:59:56.134Z,9.279963
2022-09-06T05:00:56.191Z,9.279990
2022-09-06T05:01:57.124Z,9.280014
2022-09-06T05:02:57.070Z,9.279976
2022-09-06T05:03:57.068Z,9.279984
2022-09-06T05:04:57.857Z,9.279902
2022-09-06T05:05:56.006Z,9.279880
2022-09-06T05:06:55.985Z,9.279842
2022-09-06T05:07:55.968Z,9.279852
2022-09-06T05:08:55.964Z,9.279894
2022-09-06T05:09:55.930Z,9.279902
2022-09-06T05:10:55.909Z,9.279909
2022-09-06T05:11:55.886Z,9.279902
2022-09-06T05:12:55.866Z,9.279856
2022-09-06T05:13:55.843Z,9.279885
2022-09-06T05:14:55.821Z,9.279875
2022-09-06T05:15:55.803Z,9.279834
2022-09-06T05:16:56.824Z,9.279891
2022-09-06T05:17:56.747Z,9.279892
2022-09-06T05:18:55.743Z,9.279901
2022-09-06T05:19:55.722Z,9.279848
2022-09-06T05:20:55.703Z,9.279841
2022-09-06T05:21:55.680Z,9.279865
2022-09-06T05:22:56.656Z,9.279839
2022-09-06T05:23:58.715Z,9.279870
2022-09-06T05:24:56.642Z,9.279873
2022-09-06T05:25:55.597Z,9.279851
2022-09-06T05:26:55.578Z,9.279822
2022-09-06T05:27:55.555Z,9.279874
2022-09-06T05:28:55.534Z,9.279838
2022-09-06T05:29:55.518Z,9.279903
2022-09-06T05:30:56.244Z,9.279927
2022-09-06T05:31:55.515Z,9.279925
2022-09-06T05:32:55.452Z,9.279984
2022-09-06T05:33:55.432Z,9.280008
2022-09-06T05:34:55.412Z,9.279967
2022-09-06T05:35:55.391Z,9.279951
2022-09-06T05:36:56.244Z,9.279887
2022-09-06T05:37:56.239Z,9.279873
2022-09-06T05:38:56.236Z,9.279841
2022-09-06T05:39:55.478Z,9.279869
2022-09-06T05:40:55.296Z,9.279878
2022-09-06T05:41:55.270Z,9.279947
2022-09-06T05:42:55.249Z,9.280025
2022-09-06T05:43:55.227Z,9.280042
2022-09-06T05:44:55.208Z,9.279967
2022-09-06T05:45:55.240Z,9.279964
2022-09-06T05:46:55.184Z,9.279990
2022-09-06T05:47:55.146Z,9.279988
2022-09-06T05:48:55.124Z,9.279924
2022-09-06T05:49:55.105Z,9.279965
2022-09-06T05:50:55.085Z,9.280013
2022-09-06T05:51:55.065Z,9.279986
2022-09-06T05:52:55.043Z,9.279903
2022-09-06T05:53:55.028Z,9.279948
2022-09-06T05:54:55.007Z,9.279989
2022-09-06T05:55:54.979Z,9.279934
2022-09-06T05:56:54.959Z,9.279985
2022-09-06T05:57:54.937Z,9.280025
2022-09-06T05:58:54.919Z,9.279930
2022-09-06T05:59:54.898Z,9.279995
2022-09-06T06:00:54.898Z,9.279992
2022-09-06T06:01:54.977Z,9.280029
2022-09-06T06:02:54.836Z,9.279993
2022-09-06T06:03:54.811Z,9.279959
2022-09-06T06:04:54.797Z,9.279986
2022-09-06T06:05:55.350Z,9.279972
2022-09-06T06:06:55.349Z,9.279977
2022-09-06T06:07:54.734Z,9.279982
2022-09-06T06:08:54.715Z,9.279967
2022-09-06T06:09:54.677Z,9.279986
2022-09-06T06:10:54.670Z,9.279964
2022-09-06T06:11:54.651Z,9.279999
2022-09-06T06:12:54.629Z,9.280061
2022-09-06T06:13:54.616Z,9.280091
2022-09-06T06:14:54.591Z,9.280067
2022-09-06T06:15:54.573Z,9.280030
2022-09-06T06:16:54.612Z,9.280092
2022-09-06T06:17:54.534Z,9.279992
2022-09-06T06:18:55.513Z,9.279959
2022-09-06T06:19:54.490Z,9.280012
2022-09-06T06:20:56.235Z,9.280020
2022-09-06T06:21:54.457Z,9.279921
2022-09-06T06:22:54.441Z,9.279942
2022-09-06T06:23:54.436Z,9.279974
2022-09-06T06:24:54.401Z,9.279994
2022-09-06T06:25:55.348Z,9.280010
2022-09-06T06:26:54.366Z,9.279994
2022-09-06T06:27:54.348Z,9.280003
2022-09-06T06:28:55.238Z,9.280025
2022-09-06T06:29:54.309Z,9.280113
2022-09-06T06:30:54.302Z,9.280035
2022-09-06T06:31:54.317Z,9.280058
2022-09-06T06:32:54.254Z,9.280053
2022-09-06T06:33:54.242Z,9.280061
2022-09-06T06:34:54.216Z,9.280048
2022-09-06T06:35:54.197Z,9.280061
2022-09-06T06:36:54.176Z,9.280049
2022-09-06T06:37:54.157Z,9.280104
2022-09-06T06:38:54.142Z,9.280058
2022-09-06T06:39:55.162Z,9.280111
2022-09-06T06:40:59.451Z,9.280131
2022-09-06T06:41:56.087Z,9.280075
2022-09-06T06:42:54.065Z,9.280072
2022-09-06T06:43:54.049Z,9.280112
2022-09-06T06:44:54.039Z,9.280058
2022-09-06T06:45:54.086Z,9.280000
2022-09-06T06:46:53.994Z,9.280005
2022-09-06T06:47:53.975Z,9.279982
2022-09-06T06:48:55.073Z,9.279976
2022-09-06T06:49:53.935Z,9.280001
2022-09-06T06:50:53.921Z,9.280025
2022-09-06T06:51:53.899Z,9.280027
2022-09-06T06:52:53.894Z,9.279965
2022-09-06T06:53:54.692Z,9.280000
2022-09-06T06:54:53.847Z,9.280002
2022-09-06T06:55:53.842Z,9.280022
2022-09-06T06:56:53.804Z,9.280068
2022-09-06T06:57:53.790Z,9.279986
2022-09-06T06:58:53.779Z,9.280043
2022-09-06T06:59:53.755Z,9.280037
2022-09-06T07:00:53.810Z,9.279905
2022-09-06T07:01:54.802Z,9.280109
2022-09-06T07:02:53.696Z,9.280153
2022-09-06T07:03:53.679Z,9.280016
2022-09-06T07:04:53.659Z,9.280216
2022-09-06T07:07:55.604Z,9.280023
2022-09-06T07:08:53.593Z,9.279961
2022-09-06T07:10:53.552Z,9.280193
2022-09-06T07:11:53.531Z,9.280169
2022-09-06T07:12:53.512Z,9.279941
2022-09-06T07:13:53.521Z,9.280059
2022-09-06T07:14:53.475Z,9.280058
2022-09-06T07:15:53.496Z,9.280107
2022-09-06T07:16:53.434Z,9.280121
2022-09-06T07:17:53.418Z,9.280106
2022-09-06T07:18:53.403Z,9.280097
2022-09-06T07:21:55.349Z,9.280024
2022-09-06T07:22:53.390Z,9.279997
2022-09-06T07:24:09.424Z,9.280087
2022-09-06T07:24:55.291Z,9.280037
2022-09-06T07:25:53.266Z,9.280140
2022-09-06T07:27:55.233Z,9.280057
2022-09-06T07:28:53.213Z,9.280066
2022-09-06T07:29:53.197Z,9.280079
2022-09-06T07:30:53.176Z,9.280066
2022-09-06T07:32:55.138Z,9.280065
2022-09-06T07:33:55.648Z,9.280034
2022-09-06T07:34:54.096Z,9.280014
2022-09-06T07:35:53.076Z,9.279917
2022-09-06T07:36:53.056Z,9.280028
2022-09-06T07:37:53.043Z,9.280067
2022-09-06T07:38:53.026Z,9.280107
2022-09-06T07:39:53.078Z,9.280046
2022-09-06T07:40:52.985Z,9.280007
2022-09-06T07:41:52.970Z,9.280052
2022-09-06T07:42:52.944Z,9.280035
2022-09-06T07:43:52.925Z,9.279938
2022-09-06T07:44:52.926Z,9.279957
2022-09-06T07:45:52.892Z,9.280040
2022-09-06T07:46:52.900Z,9.280023
2022-09-06T07:48:54.830Z,9.280009
2022-09-06T07:50:58.852Z,9.280053
2022-09-06T07:51:54.779Z,9.280160
2022-09-06T07:53:10.954Z,9.280126
2022-09-06T07:54:07.064Z,9.279982
2022-09-06T07:54:54.731Z,9.280054
2022-09-06T07:55:52.714Z,9.279995
2022-09-06T07:56:52.695Z,9.280009
2022-09-06T07:57:52.675Z,9.280036
2022-09-06T07:58:52.659Z,9.280003
2022-09-06T07:59:52.640Z,9.279881
2022-09-06T08:00:52.632Z,9.279918
2022-09-06T08:01:52.629Z,9.280025
2022-09-06T08:02:53.585Z,9.280030
2022-09-06T08:03:52.574Z,9.280046
2022-09-06T08:04:52.556Z,9.280005
2022-09-06T08:08:57.894Z,9.279955
2022-09-06T08:09:53.474Z,9.280005
2022-09-06T08:10:52.454Z,9.279937
2022-09-06T08:11:52.438Z,9.279985
2022-09-06T08:12:52.426Z,9.279995
2022-09-06T08:13:52.398Z,9.279999
2022-09-06T08:14:52.384Z,9.279989
2022-09-06T08:15:52.429Z,9.279982
2022-09-06T08:16:52.345Z,9.279977
2022-09-06T08:17:52.328Z,9.279919
2022-09-06T08:18:53.221Z,9.279992
2022-09-06T08:19:52.292Z,9.279965
2022-09-06T08:20:52.272Z,9.279964
2022-09-06T08:21:52.254Z,9.279974
2022-09-06T08:22:52.235Z,9.279975
2022-09-06T08:23:52.218Z,9.279949
2022-09-06T08:24:52.202Z,9.279894
2022-09-06T08:25:52.217Z,9.279948
2022-09-06T08:26:52.169Z,9.279961
2022-09-06T08:27:52.151Z,9.279972
2022-09-06T08:28:52.722Z,9.279948
2022-09-06T08:29:52.111Z,9.279992
2022-09-06T08:30:52.094Z,9.279948
2022-09-06T08:31:52.087Z,9.280036
2022-09-06T08:32:52.059Z,9.279966
2022-09-06T08:33:52.047Z,9.279934
2022-09-06T08:34:52.024Z,9.279875
2022-09-06T08:35:52.004Z,9.279984
2022-09-06T08:36:51.984Z,9.279986
2022-09-06T08:37:51.978Z,9.279984
2022-09-06T08:38:52.832Z,9.279947
2022-09-06T08:39:51.951Z,9.279959
2022-09-06T08:40:51.905Z,9.279868
2022-09-06T08:41:52.896Z,9.279921
2022-09-06T08:42:51.878Z,9.279927
2022-09-06T08:45:55.652Z,9.279958
2022-09-06T08:46:52.879Z,9.279899
2022-09-06T08:47:51.792Z,9.279867
2022-09-06T08:48:52.719Z,9.279902
2022-09-06T08:49:51.754Z,9.279911
2022-09-06T08:50:51.743Z,9.279966
2022-09-06T08:51:51.720Z,9.279879
2022-09-06T08:53:15.672Z,9.279855
2022-09-06T08:53:52.686Z,9.279919
2022-09-06T08:54:51.666Z,9.279943
2022-09-06T08:55:51.645Z,9.279972
2022-09-06T08:56:51.629Z,9.279919
2022-09-06T08:57:51.611Z,9.279836
2022-09-06T08:58:52.216Z,9.279927
2022-09-06T08:59:51.579Z,9.279819
2022-09-06T09:00:51.701Z,9.279982
2022-09-06T09:01:51.624Z,9.279915
2022-09-06T09:02:51.524Z,9.280017
2022-09-06T09:03:51.509Z,9.279903
2022-09-06T09:04:51.487Z,9.279859
2022-09-06T09:05:51.468Z,9.279746
2022-09-06T09:06:51.450Z,9.279971
2022-09-06T09:07:53.214Z,9.280074
2022-09-06T09:08:51.414Z,9.280005
2022-09-06T09:09:51.394Z,9.280048
2022-09-06T09:10:51.380Z,9.280016
2022-09-06T09:11:51.361Z,9.279970
2022-09-06T09:12:52.340Z,9.279785
2022-09-06T09:13:51.323Z,9.279890
2022-09-06T09:14:51.305Z,9.279883
2022-09-06T09:15:51.313Z,9.279964
2022-09-06T09:16:51.273Z,9.280025
2022-09-06T09:17:51.259Z,9.280030
2022-09-06T09:18:51.825Z,9.280045
2022-09-06T09:19:51.212Z,9.280024
2022-09-06T09:20:51.197Z,9.279850
2022-09-06T09:21:51.175Z,9.279742
2022-09-06T09:22:52.827Z,9.279920
2022-09-06T09:23:51.143Z,9.279927
2022-09-06T09:24:51.131Z,9.280013
2022-09-06T09:25:51.106Z,9.279959
2022-09-06T09:26:51.106Z,9.279948
2022-09-06T09:27:51.079Z,9.279947
2022-09-06T09:28:51.713Z,9.279949
2022-09-06T09:30:53.030Z,9.279802
2022-09-06T09:31:53.318Z,9.279886
2022-09-06T09:32:52.994Z,9.279861
2022-09-06T09:33:50.966Z,9.279944
2022-09-06T09:34:50.944Z,9.279971
2022-09-06T09:35:51.715Z,9.279984
2022-09-06T09:37:56.010Z,9.279965
2022-09-06T09:38:51.893Z,9.279982
2022-09-06T09:39:50.945Z,9.279923
2022-09-06T09:40:50.838Z,9.279909
2022-09-06T09:41:50.822Z,9.279856
2022-09-06T09:42:50.801Z,9.279850
2022-09-06T09:43:50.784Z,9.279856
2022-09-06T09:44:51.323Z,9.279898
2022-09-06T09:45:50.745Z,9.279923
2022-09-06T09:46:51.763Z,9.279960
2022-09-06T09:47:50.710Z,9.279979
2022-09-06T09:48:50.690Z,9.279947
2022-09-06T09:49:50.678Z,9.279914
2022-09-06T09:50:50.656Z,9.279823
2022-09-06T09:51:50.646Z,9.279830
2022-09-06T09:52:50.629Z,9.279892
2022-09-06T09:53:50.600Z,9.279916
2022-09-06T09:54:50.576Z,9.279926
2022-09-06T09:55:52.321Z,9.279805
2022-09-06T09:56:50.552Z,9.279819
2022-09-06T09:57:50.548Z,9.279792
2022-09-06T09:58:50.519Z,9.279868
2022-09-06T09:59:50.492Z,9.279851
2022-09-06T10:00:50.537Z,9.279799
2022-09-06T10:01:50.455Z,9.279845
2022-09-06T10:02:50.437Z,9.279901
2022-09-06T10:04:52.401Z,9.279965
2022-09-06T10:05:50.613Z,9.279892
2022-09-06T10:07:52.349Z,9.279950
2022-09-06T10:08:50.330Z,9.279867
2022-09-06T10:09:50.310Z,9.279933
2022-09-06T10:10:50.291Z,9.279964
2022-09-06T10:11:50.272Z,9.279848
2022-09-06T10:12:50.257Z,9.279821
2022-09-06T10:13:50.239Z,9.279928
2022-09-06T10:14:50.228Z,9.279814
2022-09-06T10:15:50.256Z,9.279800
2022-09-06T10:16:50.181Z,9.279771
2022-09-06T10:17:50.169Z,9.279743
2022-09-06T10:18:50.152Z,9.279838
2022-09-06T10:19:50.127Z,9.279829
2022-09-06T10:20:50.110Z,9.279976
2022-09-06T10:21:50.091Z,9.279737
2022-09-06T10:22:50.078Z,9.279839
2022-09-06T10:24:51.040Z,9.279855
2022-09-06T10:25:50.116Z,9.279851
2022-09-06T10:26:50.012Z,9.279868
2022-09-06T10:28:01.677Z,9.279840
2022-09-06T10:28:51.967Z,9.279856
2022-09-06T10:29:49.949Z,9.279763
2022-09-06T10:30:49.929Z,9.279865
2022-09-06T10:31:49.992Z,9.279909
2022-09-06T10:32:49.891Z,9.280001
2022-09-06T10:33:50.870Z,9.279849
2022-09-06T10:34:49.853Z,9.279879
2022-09-06T10:35:49.834Z,9.279848
2022-09-06T10:36:49.821Z,9.279817
2022-09-06T10:37:49.798Z,9.279943
2022-09-06T10:38:49.783Z,9.279860
2022-09-06T10:39:49.825Z,9.279878
2022-09-06T10:40:49.744Z,9.279968
2022-09-06T10:41:50.726Z,9.279870
2022-09-06T10:42:49.709Z,9.279959
2022-09-06T10:43:49.691Z,9.280050
2022-09-06T10:44:49.675Z,9.280046
2022-09-06T10:45:49.661Z,9.280036
2022-09-06T10:46:49.693Z,9.280008
2022-09-06T10:47:49.616Z,9.280042
2022-09-06T10:48:49.606Z,9.280021
2022-09-06T10:49:49.584Z,9.279881
2022-09-06T10:50:49.569Z,9.279923
2022-09-06T10:51:50.203Z,9.279882
2022-09-06T10:52:49.530Z,9.279869
2022-09-06T10:53:49.515Z,9.279927
2022-09-06T10:54:49.493Z,9.279921
2022-09-06T10:55:49.473Z,9.279885
2022-09-06T10:56:49.460Z,9.279963
2022-09-06T10:59:52.054Z,9.279886
2022-09-06T11:00:51.393Z,9.279887
2022-09-06T11:01:49.467Z,9.279893
2022-09-06T11:03:53.427Z,9.279895
2022-09-06T11:05:51.303Z,9.279924
2022-09-06T11:06:49.288Z,9.279922
2022-09-06T11:08:53.324Z,9.279946
2022-09-06T11:09:49.228Z,9.279877
2022-09-06T11:10:49.212Z,9.279928
2022-09-06T11:11:49.198Z,9.279886
2022-09-06T11:12:49.175Z,9.279893
2022-09-06T11:13:49.212Z,9.279871
2022-09-06T11:14:49.140Z,9.279872
2022-09-06T11:15:49.248Z,9.279881
2022-09-06T11:16:49.102Z,9.279897
2022-09-06T11:17:49.083Z,9.279901
2022-09-06T11:18:49.065Z,9.279894
2022-09-06T11:19:49.045Z,9.279932
2022-09-06T11:20:49.029Z,9.279922
2022-09-06T11:21:49.009Z,9.279893
2022-09-06T11:22:48.992Z,9.279874
2022-09-06T11:23:48.975Z,9.279897
2022-09-06T11:24:48.969Z,9.279909
2022-09-06T11:25:48.964Z,9.279913
2022-09-06T11:26:48.918Z,9.279950
2022-09-06T11:27:48.900Z,9.279851
2022-09-06T11:28:48.883Z,9.279940
2022-09-06T11:29:48.865Z,9.279971
2022-09-06T11:30:48.899Z,9.279866
2022-09-06T11:32:49.810Z,9.279826
2022-09-06T11:33:48.789Z,9.279862
2022-09-06T11:34:48.775Z,9.279863
2022-09-06T11:35:48.754Z,9.279832
2022-09-06T11:36:49.737Z,9.279933
2022-09-06T11:37:48.720Z,9.279903
2022-09-06T11:38:48.700Z,9.279815
2022-09-06T11:40:50.666Z,9.279900
2022-09-06T11:41:48.647Z,9.279899
2022-09-06T11:42:48.630Z,9.279889
2022-09-06T11:43:48.617Z,9.279894
2022-09-06T11:44:48.592Z,9.279855
2022-09-06T11:45:48.577Z,9.279759
2022-09-06T11:46:48.674Z,9.279835
2022-09-06T11:47:48.533Z,9.279896
2022-09-06T11:48:48.518Z,9.279904
2022-09-06T11:49:48.497Z,9.279884
2022-09-06T11:50:48.479Z,9.279883
2022-09-06T11:51:49.459Z,9.279887
2022-09-06T11:52:49.439Z,9.279821
2022-09-06T11:53:48.431Z,9.279934
2022-09-06T11:54:48.406Z,9.279867
2022-09-06T11:55:48.385Z,9.279941
2022-09-06T11:56:48.367Z,9.279906
2022-09-06T11:57:48.352Z,9.279929
2022-09-06T11:58:49.196Z,9.279940
2022-09-06T11:59:48.314Z,9.280003
2022-09-06T12:00:48.302Z,9.279962
2022-09-06T12:01:48.282Z,9.279956
2022-09-06T12:02:48.348Z,9.279841
2022-09-06T12:04:06.029Z,9.279876
2022-09-06T12:04:50.227Z,9.279910
2022-09-06T12:05:48.200Z,9.279940
2022-09-06T12:06:48.184Z,9.279875
2022-09-06T12:07:48.168Z,9.280015
2022-09-06T12:08:48.701Z,9.279939
2022-09-06T12:09:48.699Z,9.280012